Manakin Sabot, Virginia
Current Conditions -  °F | °C
As of 7:09 AM on Saturday 25 Oct 2014 (Local Time) from KOFP Reporting Station
Haze Haze  
Wind Chill: 37°   Ceiling: Unl
Heat Index: 37°   Visibility: 4mi
Dew Point: 37°   Wind: 0mph
Humidity: 100%   Direction: NA
Pressure: 30"   Gusts: NA
Location:  37.65°N, 77.72°W
Report Text: KOFP 251109Z AUTO 00000KT 4SM BR CLR 03/03 A3000 RMK AO2 T00280028
Loading
Personal Weather Stations






























Interactive Weather Map
Tropical Storm Tracking
New forecast layout! Learn more

10-Day Weather Forecast

Advertisements
Track Severe Weather on mobile